Terminal Aerodrome Forecast
Issued by NWS Wilmington, NC

Home | Current Version | Previous Version | Text Only | Print | Product List | Glossary On
Versions: 1 2 3 4 5 6 7 8 9 10 11 12 13 14 15
000
FTUS42 KILM 031213 CCA
TAFLBT
TAF COR
KLBT 031213Z 0312/0412 26005KT P6SM VCSH SCT005 BKN012
      TEMPO 0312/0314 BKN005
     FM031400 VRB04KT 6SM -SHRA BKN014
     FM031900 22004KT P6SM VCSH BKN020
     FM032200 VRB04KT 4SM SHRA BKN024=

USA.gov is the U.S. government's official web portal to all federal, state and local government web resources and services.